Miami, FL

1:06 PM EDT on June 28, 2017 (GMT -0400)
Miami International | | Change Station

Elev 7 ft 25.79 °N, 80.29 °W | Updated 10 minutes ago

Thunderstorm
Thunderstorm
90 °F
Feels Like 100 °F
N
9
Wind Variable Wind from SSE
Gusts 17 mph

Today
High -- | Low -- °F
--% Chance of Precip.
Yesterday
High -- | Low -- °F
Precip. -- in
Pressure 30.03 in
Visibility 10.0 miles
Clouds Scattered Clouds 3500 ft
Scattered Clouds 4700 ft
Mostly Cloudy 25000 ft
Heat Index 100 °F
Dew Point 75 °F
Humidity 61%
Rainfall 0.00 in
Snow Depth Not available.
6:32 AM 8:16 PM
Waxing Crescent, 27% visible
SPECI KMIA 281656Z COR 16008G15KT 10SM TS SCT035CB SCT047 BKN250 32/24 A3003 RMK AO2 TSB56 OCNL LTGICCG VC N TS VC N MOV STNRY TCU NE AND W-NW T03220239
Pressure 30.03 in
Visibility 10.0 miles
Clouds Scattered Clouds 3500 ft
Scattered Clouds 4700 ft
Mostly Cloudy 25000 ft
Heat Index 100 °F
Dew Point 75 °F
Humidity 61%
Rainfall 0.00 in
Snow Depth Not available.
6:32 AM 8:16 PM
Waxing Crescent, 27% visible
SPECI KMIA 281656Z COR 16008G15KT 10SM TS SCT035CB SCT047 BKN250 32/24 A3003 RMK AO2 TSB56 OCNL LTGICCG VC N TS VC N MOV STNRY TCU NE AND W-NW T03220239

Get Severe Weather Alerts

Thanks for signing up!

Be on the lookout for a verification email in your inbox.

You'll start receiving the daily forecast at 6 AM.

×

10-Day Weather Forecast

Almanac

Astronomy

Jun. 28, 2017 Rise Set
Actual Time
Civil Twilight
Nautical Twilight
Astronomical Twilight
Moon
Length of Visible Light
Length of Day
Tomorrow will be .
, % of the Moon is Illuminated

Today's Extremes

State Highs State Lows

Community

WunderPhotos

Category 6

Welcome to Category 6. This is the collective home for Weather Underground's featured writeups by Dr. Jeff Masters (right), Bob Henson (left), Chris Burt, and other regular contributors.

Nearby

Air Quality

  Air Quality AQ Index Pollutant
Not available.

Snow Depth

Station Depth Elevation

Earthquake Activity

City Distance Mag. Time & Date
Minimum magnitude displayed is 2.5.

Coastal Water Temperatures

Place Temperature

Stations

Nearby Weather Stations

Station Location Temp. Windchill Dew Point Humidity Wind Precip. Elev Updated Type
                   

Watches & Warnings

There are currently no watches in effect.